Latest Weather Observations for Middle Percy Island

IDQ60801

Issued at 11:35 pm EST Friday 1 August 2014 (issued every 30 minutes, with the page automatically refreshed every 10 minutes)

About weather observations | Map of weather stations | Latest weather observations for QLD | Other Formats
Station Details ID: 200001 Name: MIDDLE PERCY ISLAND Lat: -21.66 Lon: 150.27 Height: 208.7 m
Data from the previous 72 hours. | See also: Recent months at Middle Percy Island
Date/Time
EST
Temp
°C
App
Temp
°C
Dew
Point
Rel
Hum
%
Delta-T
°C
Wind Press
QNH
hPa
Press
MSL
hPa
Rain
since 9 am
mm
Dir
 
Spd
km/h
Gust
km/h
Spd
kts
Gust
kts
01/11:30pm 19.1 19.1 18.9 99 0.1 N 17 20 9 11 1019.0 - 0.2
01/11:00pm 19.1 18.7 18.9 99 0.1 N 19 22 10 12 1018.8 1018.2 0.2
01/10:30pm 19.1 18.5 18.8 98 0.2 N 20 28 11 15 1018.8 - 0.2
01/10:00pm 19.0 18.2 18.5 97 0.3 N 20 24 11 13 1018.7 1018.1 0.2
01/09:30pm 19.1 18.6 18.6 97 0.3 N 19 24 10 13 1018.8 - 0.2
01/09:00pm 19.1 18.5 18.4 96 0.4 N 19 24 10 13 1018.7 1018.1 0.2
01/08:30pm 19.1 18.3 18.4 96 0.4 N 20 26 11 14 1018.6 - 0.2
01/08:00pm 19.0 18.3 18.3 96 0.4 N 19 24 10 13 1018.4 1017.8 0.2
01/07:30pm 19.2 18.6 18.5 96 0.4 N 19 24 10 13 1018.1 - 0.2
01/07:00pm 19.3 18.6 18.3 94 0.6 N 19 22 10 12 1017.5 1016.9 0.2
01/06:30pm 19.4 18.7 18.2 93 0.7 N 19 24 10 13 1017.1 - 0.2
01/06:00pm 19.3 18.5 18.0 92 0.8 N 19 22 10 12 1016.7 1016.1 0.2
01/05:30pm 19.5 18.9 17.6 89 1.2 N 17 20 9 11 1016.5 - 0.2
01/05:00pm 20.3 20.5 17.7 85 1.6 N 13 19 7 10 1016.4 1015.7 0.2
01/04:30pm 21.4 22.1 17.0 76 2.7 N 9 15 5 8 1016.4 - 0.2
01/04:00pm 21.4 21.8 16.4 73 3.0 N 9 13 5 7 1016.5 1015.8 0.2
01/03:30pm 21.9 22.7 16.4 71 3.4 N 7 11 4 6 1016.6 - 0.2
01/03:00pm 21.9 23.6 18.1 79 2.4 S 6 7 3 4 1016.7 1016.1 0.2
01/02:30pm 22.2 24.4 18.4 79 2.4 SSE 4 9 2 5 1016.9 - 0.2
01/02:00pm 22.3 24.9 18.3 78 2.5 S 2 7 1 4 1017.2 1016.6 0.2
01/01:30pm 21.6 23.9 19.5 88 1.3 S 6 9 3 5 1017.5 - 0.2
01/01:00pm 21.0 23.2 19.3 90 1.1 S 6 7 3 4 1017.9 1017.3 0.2
01/12:30pm 21.2 22.6 18.6 85 1.6 SSW 9 13 5 7 1018.3 - 0.2
01/12:00pm 22.3 25.1 19.7 85 1.7 S 4 7 2 4 1018.7 1018.1 0.2
01/11:30am 20.9 23.0 18.1 84 1.8 E 4 7 2 4 1019.3 - 0.2
01/11:00am 20.1 22.3 19.1 94 0.6 SW 6 7 3 4 1019.6 1019.0 0.2
01/10:30am 19.8 21.1 18.5 92 0.8 SW 9 13 5 7 1019.9 - 0.2
01/10:00am 22.6 23.9 17.5 73 3.2 N 7 13 4 7 1020.0 1019.4 0.2
01/09:30am 21.2 22.3 18.0 82 2.0 N 9 15 5 8 1019.9 - 0.0
01/09:00am 20.8 21.5 18.0 84 1.7 N 11 15 6 8 1019.8 1019.3 0.2
01/08:30am 20.3 21.2 17.5 84 1.7 N 9 13 5 7 1019.5 - 0.2
01/08:00am 20.2 21.7 18.1 88 1.3 N 7 9 4 5 1019.2 1018.7 0.2
01/07:30am 19.1 20.7 18.3 95 0.5 N 7 9 4 5 1018.9 - 0.2
01/07:00am 18.5 19.9 17.7 95 0.5 N 7 9 4 5 1018.6 1018.1 0.2
01/06:30am 18.3 18.9 17.7 96 0.4 N 11 13 6 7 1018.4 - 0.2
01/06:00am 18.5 19.9 17.9 96 0.4 N 7 9 4 5 1018.1 1017.5 0.2
01/05:30am 18.6 19.7 17.9 96 0.4 NNE 9 11 5 6 1017.9 - 0.2
01/05:00am 18.5 19.2 17.9 96 0.4 NNE 11 13 6 7 1017.8 1017.2 0.2
01/04:30am 18.6 19.3 17.9 96 0.4 NNE 11 15 6 8 1017.7 - 0.2
01/04:00am 18.6 19.7 17.9 96 0.4 NNE 9 13 5 7 1017.8 1017.2 0.2
01/03:30am 18.5 19.2 17.9 96 0.4 NNE 11 15 6 8 1017.8 - 0.2
01/03:00am 18.4 19.0 17.8 96 0.4 NNE 11 15 6 8 1017.9 1017.3 0.2
01/02:30am 18.3 18.8 17.5 95 0.5 NE 11 15 6 8 1018.1 - 0.2
01/02:00am 18.3 18.4 17.5 95 0.5 NNE 13 17 7 9 1018.4 1017.9 0.2
01/01:30am 18.3 18.4 17.5 95 0.5 NNE 13 15 7 8 1018.5 - 0.2
01/01:00am 18.3 19.1 17.3 94 0.6 NE 9 15 5 8 1018.7 1018.2 0.2
01/12:30am 18.4 18.8 17.2 93 0.7 NE 11 15 6 8 1018.9 - 0.2
01/12:00am 18.4 18.7 17.1 92 0.8 NE 11 15 6 8 1019.0 1018.5 0.2
 
Date/Time
EST
Temp
°C
App
Temp
°C
Dew
Point
Rel
Hum
%
Delta-T
°C
Wind Press
QNH
hPa
Press
MSL
hPa
Rain
since 9 am
mm
Dir
 
Spd
km/h
Gust
km/h
Spd
kts
Gust
kts
31/11:30pm 18.3 18.4 16.6 90 1.0 NE 11 15 6 8 1019.0 - 0.2
31/11:00pm 18.4 18.5 16.4 88 1.2 NE 11 17 6 9 1019.1 1018.6 0.2
31/10:30pm 18.2 18.0 15.8 86 1.4 NE 11 15 6 8 1019.2 - 0.2
31/10:00pm 18.4 18.0 15.1 81 1.9 NE 11 15 6 8 1019.3 1018.8 0.2
31/09:30pm 18.3 19.0 16.1 87 1.3 ENE 7 11 4 6 1019.5 - 0.2
31/09:00pm 18.1 18.4 16.1 88 1.2 E 9 11 5 6 1019.5 1019.0 0.2
31/08:30pm 18.5 19.2 16.1 86 1.4 E 7 9 4 5 1019.4 - 0.2
31/08:00pm 18.7 19.3 15.8 83 1.7 E 7 11 4 6 1019.4 1018.9 0.2
31/07:30pm 18.6 18.8 15.7 83 1.7 E 9 11 5 6 1019.1 - 0.2
31/07:00pm 18.1 18.3 15.7 86 1.4 E 9 11 5 6 1018.7 1018.2 0.2
31/06:30pm 17.8 18.7 16.5 92 0.8 ESE 7 9 4 5 1018.4 - 0.2
31/06:00pm 18.1 18.9 16.4 90 1.0 ESE 7 9 4 5 1018.3 1017.8 0.2
31/05:30pm 18.4 18.8 16.4 88 1.2 ESE 9 13 5 7 1018.3 - 0.2
31/05:00pm 18.8 19.4 16.8 88 1.2 ESE 9 11 5 6 1018.4 1017.9 0.2
31/04:30pm 19.2 19.9 15.7 80 2.1 ESE 6 9 3 5 1018.1 - 0.2
31/04:00pm 19.5 20.0 15.6 78 2.3 S 7 11 4 6 1017.9 1017.3 0.2
31/03:30pm 19.4 19.7 15.9 80 2.1 WNW 9 13 5 7 1018.1 - 0.2
31/03:00pm 19.7 20.9 15.8 78 2.3 W 4 7 2 4 1018.4 1017.9 0.2
31/02:30pm 19.7 20.4 16.0 79 2.2 NNW 7 11 4 6 1018.5 - 0.2
31/02:00pm 19.4 20.2 17.2 87 1.3 N 9 13 5 7 1018.7 1018.2 0.2
31/01:30pm 18.8 19.5 17.1 90 1.0 N 9 13 5 7 1019.1 - 0.2
31/01:00pm 18.6 17.3 15.7 83 1.7 N 17 24 9 13 1019.4 1018.9 0.2
31/12:30pm 20.9 22.1 16.9 78 2.5 SE 6 11 3 6 1019.7 - 0.2
31/12:00pm 21.4 22.4 16.8 75 2.8 ESE 7 11 4 6 1020.2 1019.7 0.2
31/11:30am 20.6 22.7 18.2 86 1.5 S 4 7 2 4 1020.8 - 0.2
31/11:00am 19.1 20.8 17.1 88 1.2 N 4 9 2 5 1021.4 1020.8 0.2
31/10:30am 19.2 19.5 15.9 81 2.0 ENE 9 17 5 9 1021.6 - 0.0
31/10:00am 20.4 20.5 15.6 74 2.9 E 9 15 5 8 1021.5 1020.9 0.0
31/09:30am 20.0 20.5 17.4 85 1.6 SE 11 15 6 8 1021.6 - 0.0
31/09:00am 19.8 18.5 17.2 85 1.6 SE 20 28 11 15 1021.4 1020.8 0.0
31/08:30am 19.5 18.4 17.8 90 1.1 ESE 20 30 11 16 1021.3 - 0.0
31/08:00am 19.2 18.3 17.7 91 0.9 ESE 19 24 10 13 1021.1 1020.5 0.0
31/07:30am 19.3 18.2 17.4 89 1.2 ESE 19 26 10 14 1020.9 - 0.0
31/07:00am 19.0 18.2 17.1 89 1.2 ESE 17 24 9 13 1020.7 1020.1 0.0
31/06:30am 18.7 17.4 16.7 88 1.2 ESE 19 26 10 14 1020.4 - 0.0
31/06:00am 18.7 17.9 17.0 90 1.0 ESE 17 24 9 13 1020.2 1019.7 0.0
31/05:30am 18.8 18.1 17.3 91 0.9 ESE 17 24 9 13 1020.1 - 0.0
31/05:00am 18.7 18.3 17.2 91 0.9 SE 15 20 8 11 1019.9 1019.4 0.0
31/04:30am 18.8 18.7 16.9 89 1.2 ESE 13 19 7 10 1019.9 - 0.0
31/04:00am 18.6 18.6 16.2 86 1.4 ESE 11 17 6 9 1019.9 1019.4 0.0
31/03:30am 18.5 18.8 15.9 85 1.6 E 9 15 5 8 1020.0 - 0.0
31/03:00am 18.5 18.8 15.9 85 1.6 E 9 15 5 8 1020.1 1019.6 0.0
31/02:30am 18.6 18.5 16.0 85 1.6 E 11 19 6 10 1020.1 - 0.0
31/02:00am 18.5 18.8 15.9 85 1.6 E 9 17 5 9 1020.4 1019.8 0.0
31/01:30am 18.9 19.5 16.9 88 1.2 E 9 19 5 10 1020.6 - 0.0
31/01:00am 19.0 18.3 16.4 85 1.6 ENE 15 24 8 13 1020.7 1020.1 0.0
31/12:30am 19.1 17.6 15.4 79 2.2 NE 17 26 9 14 1020.7 - 0.0
31/12:00am 19.1 17.4 14.8 76 2.5 NE 17 26 9 14 1020.8 1020.2 0.0
 
Date/Time
EST
Temp
°C
App
Temp
°C
Dew
Point
Rel
Hum
%
Delta-T
°C
Wind Press
QNH
hPa
Press
MSL
hPa
Rain
since 9 am
mm
Dir
 
Spd
km/h
Gust
km/h
Spd
kts
Gust
kts
30/11:30pm 18.9 17.0 14.2 74 2.7 ENE 17 22 9 12 1021.0 - 0.0
30/11:00pm 18.6 17.1 15.3 81 1.9 NE 17 24 9 13 1021.2 1020.6 0.0
30/10:30pm 18.9 16.5 15.4 80 2.1 NE 22 30 12 16 1021.1 - 0.0
30/10:00pm 18.7 16.5 14.4 76 2.5 NE 19 30 10 16 1021.1 1020.5 0.0
30/09:30pm 18.9 17.0 15.2 79 2.2 NE 19 26 10 14 1021.3 - 0.0
30/09:00pm 18.8 17.8 14.5 76 2.5 NE 13 19 7 10 1021.4 1020.8 0.0
30/08:30pm 18.9 18.9 15.2 79 2.2 ENE 9 15 5 8 1021.5 - 0.0
30/08:00pm 18.9 18.7 14.8 77 2.4 ENE 9 13 5 7 1021.3 1020.7 0.0
30/07:30pm 18.9 18.7 14.8 77 2.4 ENE 9 13 5 7 1021.3 - 0.0
30/07:00pm 18.8 18.2 14.5 76 2.5 E 11 15 6 8 1021.2 1020.6 0.0
30/06:30pm 18.9 18.7 14.6 76 2.5 E 9 17 5 9 1021.1 - 0.0
30/06:00pm 18.8 18.3 13.9 73 2.8 E 9 17 5 9 1020.9 1020.3 0.0
30/05:30pm 18.8 18.5 13.4 71 3.1 E 7 11 4 6 1020.8 - 0.0
30/05:00pm 19.1 19.0 13.9 72 3.0 E 7 15 4 8 1020.7 1020.1 0.0
30/04:30pm 19.4 19.5 14.0 71 3.1 E 6 11 3 6 1020.6 - 0.0
30/04:00pm 19.7 18.4 13.6 68 3.5 ESE 13 19 7 10 1020.5 1019.9 0.0
30/03:30pm 19.6 18.3 13.8 69 3.4 ESE 13 19 7 10 1020.6 - 0.0
30/03:00pm 19.9 18.2 13.6 67 3.6 ESE 15 20 8 11 1020.4 1019.8 0.0
30/02:30pm 20.1 17.9 12.1 60 4.5 SE 15 20 8 11 1020.6 - 0.0
30/02:00pm 20.0 17.6 12.7 63 4.1 SSE 17 22 9 12 1020.9 1020.3 0.0
30/01:30pm 20.2 17.5 13.6 66 3.8 SE 20 28 11 15 1021.2 - 0.0
30/01:00pm 20.9 18.3 13.1 61 4.5 SSE 19 28 10 15 1021.5 1020.9 0.0
30/12:30pm 21.5 20.0 14.2 63 4.3 SE 15 22 8 12 1022.0 - 0.0
30/12:00pm 21.1 19.6 14.3 65 4.0 SSE 15 20 8 11 1022.2 1021.6 0.0
30/11:30am 19.9 18.5 14.5 71 3.2 SSE 15 19 8 10 1023.1 - 0.0
30/11:00am 19.9 18.7 15.1 74 2.8 S 15 20 8 11 1023.4 1022.9 0.0
30/10:30am 19.7 17.9 15.4 76 2.6 S 19 26 10 14 1023.6 - 0.0
30/10:00am 19.7 18.2 15.4 76 2.6 S 17 22 9 12 1023.8 1023.3 0.0
30/09:30am 19.9 19.0 13.6 67 3.6 S 11 17 6 9 1023.9 - 0.0
30/09:00am 19.5 19.2 13.2 67 3.6 SE 7 11 4 6 1024.0 1023.5 0.0
30/08:30am 19.2 20.4 13.8 71 3.1 CALM 0 0 0 0 1023.9 - 0.0
30/08:00am 18.4 18.7 10.8 61 4.1 CALM 0 0 0 0 1023.6 1023.1 0.0
30/07:30am 18.6 18.5 9.4 55 4.9 CALM 0 0 0 0 1023.3 - 0.0
30/07:00am 18.5 18.0 10.6 60 4.3 NNE 4 4 2 2 1022.9 1022.4 0.0
30/06:30am 18.3 17.7 10.4 60 4.3 NNE 4 6 2 3 1022.6 - 0.0
30/06:00am 18.1 17.3 11.0 63 3.9 NE 6 7 3 4 1022.2 1021.6 0.0
30/05:30am 17.7 16.6 10.8 64 3.7 ENE 7 9 4 5 1022.0 - 0.0
30/05:00am 18.0 16.7 10.1 60 4.2 ENE 7 11 4 6 1021.8 1021.2 0.0
30/04:30am 18.2 16.4 9.3 56 4.7 NE 9 13 5 7 1021.6 - 0.0
30/04:00am 18.0 16.7 9.9 59 4.3 NE 7 11 4 6 1021.5 1020.9 0.0
30/03:30am 17.8 16.2 10.2 61 4.1 ENE 9 11 5 6 1021.7 - 0.0
30/03:00am 18.0 17.0 10.9 63 3.9 ENE 7 9 4 5 1021.8 1021.2 0.0
30/02:30am 18.2 16.9 11.3 64 3.8 NE 9 13 5 7 1021.8 - 0.0
30/02:00am 18.0 17.2 11.8 67 3.4 NE 7 15 4 8 1021.9 1021.3 0.0
30/01:30am 17.8 17.3 12.5 71 3.0 ENE 7 15 4 8 1022.1 - 0.0
30/01:00am 17.9 17.1 12.8 72 2.9 ENE 9 15 5 8 1022.2 1021.6 0.0
30/12:30am 17.9 17.3 13.6 76 2.5 ENE 9 15 5 8 1022.4 - 0.0
30/12:00am 17.9 17.3 13.6 76 2.5 E 9 15 5 8 1022.5 1022.0 0.0

Other Formats:

Comma delimited format used in spreadsheet applications
http://www.bom.gov.au/fwo/IDQ60801/IDQ60801.94372.axf

JavaScript Object Notation format (JSON) in row-major order
http://www.bom.gov.au/fwo/IDQ60801/IDQ60801.94372.json